Time;durP1;ratioP1;P1;durP2;ratioP2;P2;SDS_P1;SDS_P2;PMS_P1;PMS_P2;Temp;Humidity;BMP_temperature;BMP_pressure;BME280_temperature;BME280_humidity;BME280_pressure;Samples;Min_cycle;Max_cycle;Signal;HPM_P1;HPM_P2
2021/08/16 00:01:00;;;;;;;4.00;1.33;;;22.90;52.10;;;;;;1081724;54;20031;-72
2021/08/16 00:02:24;;;;;;;4.93;1.60;;;22.90;52.00;;;;;;1081651;54;20035;-73
2021/08/16 00:03:45;;;;;;;3.22;1.58;;;22.90;51.80;;;;;;1080683;54;20047;-73
2021/08/16 00:05:07;;;;;;;3.05;1.25;;;22.80;51.60;;;;;;1081412;54;20035;-74
2021/08/16 00:06:28;;;;;;;5.05;1.60;;;22.80;51.50;;;;;;1081839;54;20030;-75
2021/08/16 00:07:49;;;;;;;3.45;1.52;;;22.70;51.40;;;;;;1081326;54;20048;-73
2021/08/16 00:09:10;;;;;;;4.05;1.65;;;22.60;51.30;;;;;;1081092;54;20561;-73
2021/08/16 00:10:31;;;;;;;3.15;1.20;;;22.60;51.30;;;;;;1081795;54;20588;-73
2021/08/16 00:11:52;;;;;;;2.55;1.23;;;22.60;51.40;;;;;;1081412;54;20045;-73
2021/08/16 00:15:35;;;;;;;3.85;1.52;;;22.40;51.50;;;;;;1080103;54;20042;-73
2021/08/16 00:16:56;;;;;;;4.22;1.50;;;22.30;51.60;;;;;;1081735;54;20629;-74
2021/08/16 00:18:18;;;;;;;2.67;1.33;;;22.30;51.60;;;;;;1081591;54;20030;-73
2021/08/16 00:19:39;;;;;;;2.92;1.40;;;22.20;51.60;;;;;;1081465;54;20030;-72
2021/08/16 00:21:01;;;;;;;3.47;1.50;;;22.20;51.60;;;;;;1082065;54;20869;-72
2021/08/16 00:22:22;;;;;;;4.18;1.95;;;22.20;51.50;;;;;;1082107;46;20065;-72
2021/08/16 00:23:43;;;;;;;3.67;1.38;;;22.10;51.50;;;;;;1081521;54;20196;-73
2021/08/16 00:25:05;;;;;;;2.10;1.30;;;22.10;51.50;;;;;;1081793;54;20034;-73
2021/08/16 00:26:25;;;;;;;4.60;1.35;;;22.00;51.50;;;;;;1081966;54;20060;-73
2021/08/16 00:27:46;;;;;;;3.85;1.50;;;22.00;51.50;;;;;;1082010;54;20030;-73
2021/08/16 00:29:07;;;;;;;3.70;1.50;;;21.90;51.60;;;;;;1081873;54;20039;-73
2021/08/16 00:30:29;;;;;;;2.83;1.38;;;21.90;51.60;;;;;;1082059;54;20154;-73
2021/08/16 00:31:50;;;;;;;1.80;1.40;;;21.90;51.70;;;;;;1082334;54;20042;-73
2021/08/16 00:33:11;;;;;;;4.60;1.80;;;21.80;51.70;;;;;;1081652;54;20041;-73
2021/08/16 00:34:32;;;;;;;3.40;1.50;;;21.80;51.80;;;;;;1081641;54;20085;-73
2021/08/16 00:35:52;;;;;;;1.67;1.13;;;21.80;51.80;;;;;;1081610;54;20038;-73
2021/08/16 00:37:13;;;;;;;3.92;1.63;;;21.70;51.90;;;;;;1082637;39;20699;-73
2021/08/16 00:38:34;;;;;;;3.90;1.25;;;21.70;51.90;;;;;;1081898;54;20043;-73
2021/08/16 00:39:55;;;;;;;3.33;1.60;;;21.70;52.00;;;;;;1081944;54;20038;-73
2021/08/16 00:41:18;;;;;;;3.08;1.73;;;21.70;52.10;;;;;;1082143;54;20505;-73
2021/08/16 00:42:39;;;;;;;7.07;1.58;;;21.60;52.10;;;;;;1081916;54;20042;-73
2021/08/16 00:44:00;;;;;;;3.92;1.60;;;21.60;52.10;;;;;;1081862;54;20038;-72
2021/08/16 00:45:21;;;;;;;4.25;1.52;;;21.50;52.20;;;;;;1081648;54;20076;-73
2021/08/16 00:46:43;;;;;;;2.47;1.50;;;21.50;52.30;;;;;;1081995;54;20205;-73
2021/08/16 00:48:03;;;;;;;4.55;1.77;;;21.50;52.40;;;;;;1081981;47;20592;-72
2021/08/16 00:49:24;;;;;;;5.00;1.63;;;21.50;52.60;;;;;;1081984;54;20034;-73
2021/08/16 00:50:46;;;;;;;5.32;1.58;;;21.40;52.60;;;;;;1081772;54;20041;-72
2021/08/16 00:52:07;;;;;;;2.95;1.77;;;21.40;52.70;;;;;;1082177;54;20167;-73
2021/08/16 00:53:31;;;;;;;3.50;1.60;;;21.40;52.90;;;;;;1082021;54;20817;-72
2021/08/16 00:54:52;;;;;;;5.05;1.73;;;21.30;53.00;;;;;;1081719;54;20045;-73
2021/08/16 00:56:13;;;;;;;4.43;1.70;;;21.30;53.00;;;;;;1082008;54;20031;-73
2021/08/16 00:57:34;;;;;;;3.38;1.85;;;21.30;53.10;;;;;;1082733;39;20496;-73
2021/08/16 00:59:00;;;;;;;3.42;1.58;;;21.30;53.30;;;;;;1082136;54;20141;-73
2021/08/16 01:00:21;;;;;;;5.22;1.80;;;21.20;53.50;;;;;;1082099;54;20042;-73
2021/08/16 01:01:42;;;;;;;3.55;1.40;;;21.20;53.40;;;;;;1081282;54;20034;-72
2021/08/16 01:03:04;;;;;;;4.47;2.20;;;21.20;53.50;;;;;;1081710;54;20632;-72
2021/08/16 01:04:29;;;;;;;4.20;1.63;;;21.10;53.50;;;;;;1082522;54;20034;-73
2021/08/16 01:05:50;;;;;;;4.72;1.90;;;21.10;53.60;;;;;;1082156;54;20034;-73
2021/08/16 01:07:11;;;;;;;3.63;2.03;;;21.10;53.60;;;;;;1081753;54;20030;-73
2021/08/16 01:08:32;;;;;;;4.32;2.03;;;21.10;53.80;;;;;;1082733;39;20474;-72
2021/08/16 01:09:52;;;;;;;3.72;1.50;;;21.00;53.90;;;;;;1082350;54;20069;-75
2021/08/16 01:11:15;;;;;;;4.45;1.67;;;21.00;54.00;;;;;;1082168;54;20075;-73
2021/08/16 01:12:37;;;;;;;4.38;1.58;;;21.00;54.10;;;;;;1081629;54;20058;-72
2021/08/16 01:13:58;;;;;;;5.38;1.77;;;20.90;54.20;;;;;;1081597;54;20039;-73
2021/08/16 01:15:19;;;;;;;4.28;1.45;;;20.90;54.30;;;;;;1082222;54;20035;-73
2021/08/16 01:16:40;;;;;;;4.38;1.52;;;20.90;54.40;;;;;;1081636;47;20057;-73
2021/08/16 01:18:01;;;;;;;3.80;1.90;;;20.90;54.50;;;;;;1081467;54;20814;-73
2021/08/16 01:19:22;;;;;;;5.07;2.03;;;20.80;54.50;;;;;;1082017;54;20592;-72
2021/08/16 01:20:43;;;;;;;6.97;1.83;;;20.80;54.60;;;;;;1082227;54;20034;-73
2021/08/16 01:22:04;;;;;;;6.30;2.10;;;20.80;54.60;;;;;;1081868;47;20038;-73
2021/08/16 01:23:26;;;;;;;3.83;2.05;;;20.80;54.80;;;;;;1081811;54;20139;-73
2021/08/16 01:24:47;;;;;;;5.97;1.92;;;20.80;54.90;;;;;;1082177;54;20043;-73
2021/08/16 01:26:08;;;;;;;4.53;1.60;;;20.80;55.00;;;;;;1082990;39;20448;-73
2021/08/16 01:27:29;;;;;;;5.50;2.15;;;20.80;55.20;;;;;;1082081;54;20042;-74
2021/08/16 01:28:50;;;;;;;4.22;1.63;;;20.70;55.30;;;;;;1082535;54;20031;-73
2021/08/16 01:30:15;;;;;;;5.68;2.35;;;20.70;55.40;;;;;;1082425;54;20049;-73
2021/08/16 01:31:36;;;;;;;2.58;1.55;;;20.70;55.50;;;;;;1082292;54;20564;-72
2021/08/16 01:32:56;;;;;;;4.90;2.13;;;20.70;55.40;;;;;;1082192;54;20046;-73
2021/08/16 01:34:17;;;;;;;6.40;2.00;;;20.70;55.70;;;;;;1081815;54;20126;-73
2021/08/16 01:35:38;;;;;;;6.55;1.80;;;20.70;55.80;;;;;;1082304;54;20754;-73
2021/08/16 01:37:00;;;;;;;5.00;2.00;;;20.70;55.80;;;;;;1082613;54;20042;-73
2021/08/16 01:38:26;;;;;;;3.75;1.73;;;20.70;55.90;;;;;;1082342;54;20034;-73
2021/08/16 01:39:47;;;;;;;3.92;2.10;;;20.70;55.90;;;;;;1082061;54;20121;-73
2021/08/16 01:41:08;;;;;;;2.88;1.60;;;20.70;55.90;;;;;;1081915;54;20034;-72
2021/08/16 01:42:29;;;;;;;6.00;1.63;;;20.70;55.90;;;;;;1082322;54;20039;-74
2021/08/16 01:43:50;;;;;;;5.00;2.00;;;20.70;56.00;;;;;;1082128;54;20042;-72
2021/08/16 01:45:11;;;;;;;2.55;1.50;;;20.70;55.90;;;;;;1082375;54;20072;-73
2021/08/16 01:46:32;;;;;;;6.45;2.35;;;20.80;55.90;;;;;;1081965;54;20030;-72
2021/08/16 01:47:53;;;;;;;12.45;2.33;;;20.70;55.90;;;;;;1082149;54;20077;-72
2021/08/16 01:49:14;;;;;;;4.47;2.13;;;20.70;56.00;;;;;;1082403;54;20099;-73
2021/08/16 01:50:35;;;;;;;4.47;1.67;;;20.70;55.90;;;;;;1082006;54;20035;-72
2021/08/16 01:51:56;;;;;;;5.63;2.22;;;20.70;55.90;;;;;;1082292;54;20037;-73
2021/08/16 01:53:17;;;;;;;4.63;2.03;;;20.70;56.00;;;;;;1082205;54;20042;-74
2021/08/16 01:54:39;;;;;;;8.48;2.53;;;20.70;55.90;;;;;;1082066;54;20056;-72
2021/08/16 01:56:00;;;;;;;3.90;1.60;;;20.60;56.00;;;;;;1081947;54;20034;-72
2021/08/16 01:57:21;;;;;;;3.97;1.98;;;20.60;56.00;;;;;;1082052;46;20030;-73
2021/08/16 01:58:42;;;;;;;5.13;1.80;;;20.70;56.10;;;;;;1082005;54;20034;-73
2021/08/16 02:00:04;;;;;;;5.38;2.20;;;20.60;56.00;;;;;;1081816;54;20038;-73
2021/08/16 02:01:25;;;;;;;4.72;1.92;;;20.60;56.10;;;;;;1081797;47;20030;-73
2021/08/16 02:02:46;;;;;;;3.72;1.90;;;20.60;56.20;;;;;;1082246;54;20030;-73
2021/08/16 02:04:07;;;;;;;4.43;1.65;;;20.60;56.10;;;;;;1082444;54;20153;-74
2021/08/16 02:05:30;;;;;;;3.83;1.65;;;20.60;56.20;;;;;;1082125;54;20034;-73
2021/08/16 02:06:51;;;;;;;4.90;2.05;;;20.60;56.20;;;;;;1082090;54;20037;-73
2021/08/16 02:08:12;;;;;;;5.43;1.88;;;20.60;56.20;;;;;;1082157;54;20031;-74
2021/08/16 02:09:33;;;;;;;6.22;1.85;;;20.60;56.20;;;;;;1082732;54;20031;-73
2021/08/16 02:10:54;;;;;;;6.78;1.75;;;20.60;56.20;;;;;;1082520;39;20397;-73
2021/08/16 02:12:15;;;;;;;6.18;1.67;;;20.60;56.30;;;;;;1081779;54;20048;-74
2021/08/16 02:13:36;;;;;;;3.38;1.55;;;20.60;56.20;;;;;;1082161;54;20856;-73
2021/08/16 02:14:57;;;;;;;4.22;1.70;;;20.70;56.30;;;;;;1082945;39;20370;-72
2021/08/16 02:16:18;;;;;;;4.00;1.52;;;20.70;56.20;;;;;;1082145;54;20038;-72
2021/08/16 02:17:39;;;;;;;5.20;1.90;;;20.70;56.30;;;;;;1083226;39;20473;-72
2021/08/16 02:19:00;;;;;;;4.85;2.00;;;20.70;56.30;;;;;;1082093;54;20496;-73
2021/08/16 02:20:21;;;;;;;5.63;1.52;;;20.70;56.30;;;;;;1082532;54;20034;-73
2021/08/16 02:21:42;;;;;;;3.50;1.63;;;20.70;56.30;;;;;;1082148;54;20130;-73
2021/08/16 02:23:02;;;;;;;4.07;1.80;;;20.70;56.30;;;;;;1081879;54;20042;-73
2021/08/16 02:24:23;;;;;;;5.90;2.05;;;20.70;56.30;;;;;;1082855;39;20419;-73
2021/08/16 02:25:44;;;;;;;4.95;2.20;;;20.70;56.30;;;;;;1082659;39;20682;-72
2021/08/16 02:27:05;;;;;;;4.78;1.77;;;20.70;56.30;;;;;;1082097;54;20038;-72
2021/08/16 02:28:26;;;;;;;3.90;2.13;;;20.70;56.30;;;;;;1082123;54;20031;-72
2021/08/16 02:29:48;;;;;;;4.20;2.03;;;20.70;56.30;;;;;;1082859;39;20369;-72
2021/08/16 02:31:09;;;;;;;3.13;1.73;;;20.70;56.40;;;;;;1082256;54;20104;-73
2021/08/16 02:32:30;;;;;;;3.95;1.77;;;20.70;56.30;;;;;;1082117;54;20030;-71
2021/08/16 02:33:51;;;;;;;7.10;2.47;;;20.70;56.40;;;;;;1082379;54;20035;-72
2021/08/16 02:35:13;;;;;;;5.55;1.92;;;20.70;56.40;;;;;;1082267;54;20043;-74
2021/08/16 02:36:34;;;;;;;3.67;1.58;;;20.60;56.50;;;;;;1082025;54;20034;-73
2021/08/16 02:37:55;;;;;;;5.85;2.42;;;20.60;56.50;;;;;;1081723;54;20042;-73
2021/08/16 02:39:16;;;;;;;7.35;1.90;;;20.70;56.50;;;;;;1081610;54;20038;-72
2021/08/16 02:40:37;;;;;;;4.05;1.90;;;20.60;56.50;;;;;;1081985;54;20038;-72
2021/08/16 02:41:58;;;;;;;6.65;2.47;;;20.60;56.50;;;;;;1081966;47;20030;-72
2021/08/16 02:43:19;;;;;;;8.15;2.28;;;20.60;56.50;;;;;;1081827;54;20030;-73
2021/08/16 02:44:40;;;;;;;4.43;2.15;;;20.60;56.60;;;;;;1082093;39;20385;-74
2021/08/16 02:46:01;;;;;;;5.63;2.28;;;20.60;56.60;;;;;;1081906;47;20034;-72
2021/08/16 02:47:22;;;;;;;5.55;2.53;;;20.60;56.80;;;;;;1082082;54;20038;-73
2021/08/16 02:48:43;;;;;;;7.57;2.00;;;20.60;56.80;;;;;;1082166;54;20042;-73
2021/08/16 02:50:04;;;;;;;9.70;2.80;;;20.60;56.80;;;;;;1082041;54;20042;-73
2021/08/16 02:51:26;;;;;;;8.35;2.55;;;20.60;56.90;;;;;;1082153;54;20044;-73
2021/08/16 02:52:47;;;;;;;5.80;2.50;;;20.60;56.80;;;;;;1082089;54;20045;-73
2021/08/16 02:54:08;;;;;;;4.13;2.20;;;20.60;56.80;;;;;;1081971;54;20038;-73
2021/08/16 02:55:29;;;;;;;6.57;2.33;;;20.50;57.30;;;;;;1081894;54;20042;-73
2021/08/16 02:56:49;;;;;;;6.00;2.28;;;20.60;56.90;;;;;;1082433;54;20036;-73
2021/08/16 02:58:10;;;;;;;6.53;2.00;;;20.60;57.00;;;;;;1082902;31;20125;-74
2021/08/16 02:59:31;;;;;;;4.65;2.17;;;20.50;57.00;;;;;;1081816;47;20035;-74
2021/08/16 03:00:52;;;;;;;7.03;2.47;;;20.50;57.10;;;;;;1081979;54;20030;-75
2021/08/16 03:02:13;;;;;;;6.45;2.40;;;20.50;57.10;;;;;;1082119;54;20038;-75
2021/08/16 03:03:34;;;;;;;3.65;2.33;;;20.50;57.10;;;;;;1081707;54;20126;-74
2021/08/16 03:04:55;;;;;;;6.72;2.80;;;20.50;57.20;;;;;;1081873;54;20521;-72
2021/08/16 03:06:16;;;;;;;7.22;2.85;;;20.50;57.30;;;;;;1081833;47;20042;-74
2021/08/16 03:07:37;;;;;;;7.00;2.67;;;20.50;57.20;;;;;;1082027;54;20046;-75
2021/08/16 03:08:58;;;;;;;4.28;2.22;;;20.50;57.30;;;;;;1082014;54;20038;-75
2021/08/16 03:10:19;;;;;;;5.00;2.00;;;20.50;57.40;;;;;;1082226;39;20713;-75
2021/08/16 03:11:40;;;;;;;6.85;2.47;;;20.50;57.50;;;;;;1081799;47;20039;-74
2021/08/16 03:13:01;;;;;;;4.25;2.03;;;20.40;57.50;;;;;;1082137;54;20616;-73
2021/08/16 03:14:22;;;;;;;7.82;2.65;;;20.40;57.50;;;;;;1082200;54;20154;-74
2021/08/16 03:15:43;;;;;;;3.65;2.10;;;20.40;57.60;;;;;;1081730;54;20030;-74
2021/08/16 03:17:04;;;;;;;7.15;2.20;;;20.40;57.60;;;;;;1081790;54;20890;-75
2021/08/16 03:18:25;;;;;;;5.20;1.92;;;20.40;57.70;;;;;;1082243;54;20135;-74
2021/08/16 03:19:46;;;;;;;3.70;2.10;;;20.40;57.70;;;;;;1083231;31;20470;-75
2021/08/16 03:21:07;;;;;;;4.45;1.90;;;20.40;57.80;;;;;;1081888;54;20060;-74
2021/08/16 03:22:28;;;;;;;4.55;2.10;;;20.40;57.80;;;;;;1082277;54;20270;-75
2021/08/16 03:23:49;;;;;;;4.90;2.10;;;20.40;57.90;;;;;;1082203;54;20038;-74
2021/08/16 03:25:11;;;;;;;4.35;2.10;;;20.40;57.90;;;;;;1082511;39;20485;-72
2021/08/16 03:26:32;;;;;;;5.43;2.38;;;20.40;58.00;;;;;;1081977;54;20162;-74
2021/08/16 03:27:53;;;;;;;5.18;1.65;;;20.40;58.10;;;;;;1082499;54;20030;-72
2021/08/16 03:29:14;;;;;;;5.65;2.10;;;20.40;58.00;;;;;;1082467;54;20030;-73
2021/08/16 03:30:35;;;;;;;3.67;2.33;;;20.40;58.00;;;;;;1081745;54;20352;-74
2021/08/16 03:32:00;;;;;;;3.85;2.00;;;20.40;58.10;;;;;;1081610;54;20059;-74
2021/08/16 03:33:21;;;;;;;5.32;2.33;;;20.30;58.20;;;;;;1082182;39;20485;-73
2021/08/16 03:34:42;;;;;;;5.65;1.88;;;20.40;58.20;;;;;;1082463;54;20149;-73
2021/08/16 03:36:03;;;;;;;6.45;2.25;;;20.40;58.20;;;;;;1081740;54;20537;-72
2021/08/16 03:37:25;;;;;;;5.32;1.75;;;20.40;58.30;;;;;;1081783;54;20494;-72
2021/08/16 03:38:46;;;;;;;6.00;2.45;;;20.40;58.40;;;;;;1082081;54;20030;-72
2021/08/16 03:40:08;;;;;;;3.33;1.92;;;20.40;58.40;;;;;;1082394;54;20078;-73
2021/08/16 03:41:29;;;;;;;3.63;1.88;;;20.30;58.50;;;;;;1082280;54;20038;-71
2021/08/16 03:42:49;;;;;;;4.70;2.60;;;20.40;58.50;;;;;;1082037;46;20049;-73
2021/08/16 03:44:10;;;;;;;5.72;2.38;;;20.40;58.60;;;;;;1081741;54;20078;-73
2021/08/16 03:45:31;;;;;;;3.75;1.88;;;20.40;58.80;;;;;;1082403;54;20623;-73
2021/08/16 03:46:52;;;;;;;4.18;1.95;;;20.40;58.80;;;;;;1082431;39;20474;-74
2021/08/16 03:48:13;;;;;;;6.60;2.15;;;20.40;58.80;;;;;;1081803;54;20165;-74
2021/08/16 03:49:34;;;;;;;6.70;2.38;;;20.40;58.80;;;;;;1082123;54;20042;-73
2021/08/16 03:50:55;;;;;;;4.65;1.95;;;20.40;58.90;;;;;;1081819;47;20157;-72
2021/08/16 03:52:16;;;;;;;5.22;2.05;;;20.30;58.90;;;;;;1082094;39;20668;-73
2021/08/16 03:53:37;;;;;;;5.20;2.10;;;20.40;59.20;;;;;;1081489;54;20035;-72
2021/08/16 03:54:58;;;;;;;5.32;2.25;;;20.30;59.00;;;;;;1082247;39;20695;-73
2021/08/16 03:56:19;;;;;;;4.95;1.80;;;20.30;59.10;;;;;;1081979;54;20046;-74
2021/08/16 03:57:40;;;;;;;6.85;2.35;;;20.30;59.20;;;;;;1081919;54;20038;-74
2021/08/16 03:59:01;;;;;;;5.57;2.25;;;20.30;59.20;;;;;;1081945;54;20137;-73
2021/08/16 04:00:22;;;;;;;6.90;2.03;;;20.30;59.30;;;;;;1082220;54;20090;-73
2021/08/16 04:01:43;;;;;;;3.28;1.90;;;20.30;59.40;;;;;;1082337;39;20542;-74
2021/08/16 04:03:04;;;;;;;6.15;2.28;;;20.30;59.90;;;;;;1081559;54;20041;-73
2021/08/16 04:04:25;;;;;;;5.35;2.33;;;20.30;59.40;;;;;;1081977;54;20042;-74
2021/08/16 04:05:46;;;;;;;5.28;2.08;;;20.30;59.50;;;;;;1082416;54;20046;-74
2021/08/16 04:07:07;;;;;;;6.15;2.30;;;20.30;59.60;;;;;;1082418;54;20038;-73
2021/08/16 04:08:27;;;;;;;5.03;2.20;;;20.30;59.50;;;;;;1083094;54;20046;-76
2021/08/16 04:09:49;;;;;;;3.45;1.70;;;20.30;59.50;;;;;;1081849;54;20806;-72
2021/08/16 04:11:11;;;;;;;6.35;2.25;;;20.30;59.50;;;;;;1082248;54;20046;-75
2021/08/16 04:12:32;;;;;;;8.40;2.78;;;20.30;59.60;;;;;;1082193;54;20038;-73
2021/08/16 04:13:53;;;;;;;4.63;2.03;;;20.30;59.60;;;;;;1082134;39;20511;-73
2021/08/16 04:15:17;;;;;;;4.47;2.13;;;20.30;59.60;;;;;;1081585;54;20038;-72
2021/08/16 04:16:38;;;;;;;5.03;2.30;;;20.30;59.80;;;;;;1082143;54;20139;-72
2021/08/16 04:17:59;;;;;;;4.60;1.85;;;20.30;59.70;;;;;;1082319;54;20031;-73
2021/08/16 04:19:20;;;;;;;6.38;2.58;;;20.30;60.50;;;;;;1081915;54;20502;-73
2021/08/16 04:20:44;;;;;;;7.70;2.50;;;20.30;59.80;;;;;;1082353;54;20042;-72
2021/08/16 04:22:05;;;;;;;3.25;1.52;;;20.30;59.80;;;;;;1082673;39;20697;-73
2021/08/16 04:23:25;;;;;;;6.78;2.05;;;20.30;59.90;;;;;;1081582;54;20043;-72
2021/08/16 04:24:46;;;;;;;5.57;2.10;;;20.30;59.90;;;;;;1081617;54;20540;-73
2021/08/16 04:26:07;;;;;;;3.85;1.95;;;20.30;59.90;;;;;;1081478;54;20031;-72
2021/08/16 04:27:28;;;;;;;6.03;2.75;;;20.30;60.10;;;;;;1082246;54;20038;-72
2021/08/16 04:28:49;;;;;;;4.13;1.95;;;20.30;60.00;;;;;;1081979;54;20164;-73
2021/08/16 04:30:13;;;;;;;6.65;2.33;;;20.30;60.10;;;;;;1082065;54;20161;-73
2021/08/16 04:31:34;;;;;;;7.05;2.53;;;20.30;60.20;;;;;;1081925;54;20046;-73
2021/08/16 04:32:55;;;;;;;5.00;1.98;;;20.40;60.20;;;;;;1081719;47;20796;-73
2021/08/16 04:34:15;;;;;;;6.60;2.35;;;20.30;60.20;;;;;;1081791;54;20045;-73
2021/08/16 04:35:36;;;;;;;3.25;1.55;;;20.30;61.00;;;;;;1081923;54;20034;-73
2021/08/16 04:36:57;;;;;;;6.38;2.00;;;20.30;60.20;;;;;;1081861;54;20030;-73
2021/08/16 04:38:19;;;;;;;7.28;2.08;;;20.30;60.40;;;;;;1082257;54;20055;-73
2021/08/16 04:39:40;;;;;;;5.15;1.88;;;20.30;60.40;;;;;;1082253;39;20366;-73
2021/08/16 04:41:01;;;;;;;4.13;1.88;;;20.30;60.40;;;;;;1081696;54;20041;-72
2021/08/16 04:42:25;;;;;;;4.32;2.03;;;20.40;60.40;;;;;;1081826;54;20041;-73
2021/08/16 04:43:46;;;;;;;5.03;2.47;;;20.30;60.50;;;;;;1081933;47;20065;-73
2021/08/16 04:45:09;;;;;;;4.25;1.67;;;20.30;60.80;;;;;;1081961;54;20099;-72
2021/08/16 04:46:30;;;;;;;3.30;1.77;;;20.30;60.70;;;;;;1082352;39;20784;-71
2021/08/16 04:47:51;;;;;;;5.78;2.30;;;20.30;60.60;;;;;;1081909;54;20042;-74
2021/08/16 04:49:12;;;;;;;4.63;2.17;;;20.30;60.70;;;;;;1081968;54;20035;-72
2021/08/16 04:50:33;;;;;;;3.78;1.63;;;20.30;60.80;;;;;;1081807;47;20055;-73
2021/08/16 04:51:54;;;;;;;8.38;2.50;;;20.30;60.70;;;;;;1081866;54;20038;-73
2021/08/16 04:53:15;;;;;;;3.35;1.83;;;20.30;60.90;;;;;;1081313;54;20134;-73
2021/08/16 04:54:36;;;;;;;3.65;1.88;;;20.30;60.90;;;;;;1081735;54;20046;-73
2021/08/16 04:55:57;;;;;;;5.28;2.08;;;20.30;61.00;;;;;;1081957;54;20038;-72
2021/08/16 04:57:29;;;;;;;6.22;2.42;;;20.30;61.00;;;;;;1081787;54;20030;-73
2021/08/16 04:58:50;;;;;;;3.70;2.22;;;20.30;61.40;;;;;;1081738;54;20871;-72
2021/08/16 05:00:13;;;;;;;7.15;2.50;;;20.30;60.90;;;;;;1082150;54;20477;-73
2021/08/16 05:01:34;;;;;;;3.13;1.83;;;20.30;61.20;;;;;;1082227;54;20035;-73
2021/08/16 05:02:56;;;;;;;5.10;2.22;;;20.30;61.20;;;;;;1081285;47;20601;-72
2021/08/16 05:04:17;;;;;;;5.40;2.40;;;20.30;61.30;;;;;;1081364;54;20050;-73
2021/08/16 05:05:45;;;;;;;3.85;2.08;;;20.30;61.40;;;;;;1081936;54;20039;-73
2021/08/16 05:07:06;;;;;;;5.95;1.90;;;20.30;61.30;;;;;;1081698;54;20505;-74
2021/08/16 05:08:27;;;;;;;3.75;1.83;;;20.30;61.30;;;;;;1081960;54;20042;-73
2021/08/16 05:09:50;;;;;;;6.35;2.17;;;20.40;61.40;;;;;;1080357;54;20035;-74
2021/08/16 05:11:11;;;;;;;3.75;2.30;;;20.30;61.60;;;;;;1080950;54;20042;-70
2021/08/16 05:12:33;;;;;;;7.28;2.35;;;20.40;61.80;;;;;;1081229;54;20042;-72
2021/08/16 05:13:53;;;;;;;4.13;2.05;;;20.30;61.80;;;;;;1081318;54;20042;-74
2021/08/16 05:15:15;;;;;;;6.38;2.10;;;20.30;61.80;;;;;;1079703;54;20073;-73
2021/08/16 05:16:36;;;;;;;4.05;1.95;;;20.30;61.80;;;;;;1079165;47;20042;-71
2021/08/16 05:18:02;;;;;;;5.30;2.03;;;20.30;61.80;;;;;;1080941;54;20034;-74
2021/08/16 05:19:23;;;;;;;4.13;1.88;;;20.30;61.90;;;;;;1081234;54;20034;-72
2021/08/16 05:20:44;;;;;;;3.42;1.45;;;20.30;61.90;;;;;;1080958;54;20046;-72
2021/08/16 05:22:06;;;;;;;4.53;1.85;;;20.40;61.90;;;;;;1081549;54;20034;-73
2021/08/16 05:23:27;;;;;;;5.00;1.65;;;20.30;62.00;;;;;;1081131;54;20660;-71
2021/08/16 05:24:48;;;;;;;5.28;1.88;;;20.30;61.90;;;;;;1081185;54;20034;-73
2021/08/16 05:26:09;;;;;;;5.20;1.90;;;20.30;62.00;;;;;;1081303;54;20078;-74
2021/08/16 05:27:30;;;;;;;4.38;1.80;;;20.30;62.00;;;;;;1081528;54;20046;-74
2021/08/16 05:28:51;;;;;;;5.57;1.90;;;20.30;62.00;;;;;;1081854;54;20034;-74
2021/08/16 05:30:14;;;;;;;5.50;2.20;;;20.40;62.10;;;;;;1081137;54;20030;-72
2021/08/16 05:31:35;;;;;;;5.20;2.20;;;20.40;62.20;;;;;;1081564;39;20437;-74
2021/08/16 05:32:56;;;;;;;6.70;1.95;;;20.40;62.20;;;;;;1081025;54;20058;-74
2021/08/16 05:34:17;;;;;;;7.15;1.90;;;20.40;62.30;;;;;;1081241;54;20069;-73
2021/08/16 05:35:38;;;;;;;4.47;2.00;;;20.40;62.20;;;;;;1081423;47;20038;-72
2021/08/16 05:36:59;;;;;;;5.93;2.17;;;20.40;62.20;;;;;;1081289;54;20036;-74
2021/08/16 05:38:20;;;;;;;5.05;2.25;;;20.40;62.10;;;;;;1081591;54;20041;-72
2021/08/16 05:39:41;;;;;;;5.43;2.03;;;20.40;62.20;;;;;;1081483;54;20069;-73
2021/08/16 05:41:02;;;;;;;3.67;1.60;;;20.40;62.20;;;;;;1081430;54;20058;-73
2021/08/16 05:42:23;;;;;;;6.32;1.75;;;20.40;62.10;;;;;;1081641;54;20038;-72
2021/08/16 05:43:44;;;;;;;6.07;1.98;;;20.40;62.20;;;;;;1081258;54;20058;-73
2021/08/16 05:45:05;;;;;;;5.22;1.55;;;20.40;62.20;;;;;;1081766;54;20030;-73
2021/08/16 05:46:26;;;;;;;6.30;1.75;;;20.40;62.40;;;;;;1081583;39;20474;-71
2021/08/16 05:47:47;;;;;;;3.58;1.70;;;20.40;62.20;;;;;;1080825;54;20038;-73
2021/08/16 05:49:08;;;;;;;5.15;1.58;;;20.40;62.20;;;;;;1081256;54;20043;-71
2021/08/16 05:50:29;;;;;;;6.22;1.92;;;20.40;62.10;;;;;;1081706;39;20481;-74
2021/08/16 05:51:50;;;;;;;4.55;1.83;;;20.40;62.20;;;;;;1081212;47;20039;-72
2021/08/16 05:53:11;;;;;;;4.28;1.80;;;20.40;62.30;;;;;;1081076;54;20059;-73
2021/08/16 05:54:32;;;;;;;6.47;2.22;;;20.40;62.40;;;;;;1080842;54;20524;-72
2021/08/16 05:55:53;;;;;;;8.38;2.22;;;20.40;62.40;;;;;;1081088;54;20102;-72
2021/08/16 05:57:14;;;;;;;5.30;2.08;;;20.40;62.40;;;;;;1081079;54;20038;-73
2021/08/16 05:58:35;;;;;;;6.05;2.10;;;20.40;62.40;;;;;;1081567;54;20141;-73
2021/08/16 05:59:56;;;;;;;6.63;1.85;;;20.40;62.40;;;;;;1081515;54;20046;-72
2021/08/16 06:01:16;;;;;;;2.97;1.63;;;20.40;62.40;;;;;;1081352;54;20895;-72
2021/08/16 06:02:37;;;;;;;5.82;1.98;;;20.40;62.30;;;;;;1081601;54;20038;-72
2021/08/16 06:03:58;;;;;;;7.20;2.10;;;20.40;62.60;;;;;;1081374;47;20038;-72
2021/08/16 06:05:19;;;;;;;5.22;1.92;;;20.50;62.50;;;;;;1081392;54;20555;-70
2021/08/16 06:06:40;;;;;;;5.22;2.08;;;20.50;62.70;;;;;;1081183;54;20071;-71
2021/08/16 06:08:01;;;;;;;8.23;2.03;;;20.50;62.60;;;;;;1082264;39;20476;-71
2021/08/16 06:09:22;;;;;;;5.18;1.98;;;20.40;62.60;;;;;;1081462;47;20038;-71
2021/08/16 06:10:43;;;;;;;6.95;2.20;;;20.50;62.70;;;;;;1081650;54;20042;-70
2021/08/16 06:12:04;;;;;;;4.85;2.00;;;20.50;62.70;;;;;;1081146;54;20050;-70
2021/08/16 06:13:25;;;;;;;4.35;1.95;;;20.50;62.90;;;;;;1081655;54;20034;-71
2021/08/16 06:14:46;;;;;;;3.92;1.90;;;20.50;62.90;;;;;;1081505;54;20038;-73
2021/08/16 06:16:07;;;;;;;4.60;1.77;;;20.50;63.00;;;;;;1081581;54;20058;-73
2021/08/16 06:17:29;;;;;;;5.10;1.95;;;20.50;63.00;;;;;;1081830;39;20833;-72
2021/08/16 06:18:51;;;;;;;4.68;1.75;;;20.50;62.90;;;;;;1081423;47;20046;-72
2021/08/16 06:20:12;;;;;;;4.38;1.92;;;20.50;63.00;;;;;;1081871;54;20369;-70
2021/08/16 06:21:35;;;;;;;6.88;2.10;;;20.60;63.00;;;;;;1082351;39;20951;-70
2021/08/16 06:22:56;;;;;;;4.90;2.25;;;20.60;63.00;;;;;;1081586;54;20038;-71
2021/08/16 06:24:17;;;;;;;7.70;2.50;;;20.60;62.80;;;;;;1082030;39;20664;-71
2021/08/16 06:25:38;;;;;;;3.88;2.00;;;20.60;62.90;;;;;;1081878;54;20044;-71
2021/08/16 06:26:59;;;;;;;3.97;1.95;;;20.60;62.90;;;;;;1081723;54;20030;-72
2021/08/16 06:28:20;;;;;;;4.40;2.22;;;20.60;62.90;;;;;;1082040;54;20034;-71
2021/08/16 06:29:41;;;;;;;6.03;2.28;;;20.70;63.00;;;;;;1081818;54;20034;-70
2021/08/16 06:31:03;;;;;;;5.90;2.08;;;20.60;63.00;;;;;;1081549;54;20042;-71
2021/08/16 06:32:24;;;;;;;4.70;2.22;;;20.60;63.20;;;;;;1081354;54;20034;-71
2021/08/16 06:33:45;;;;;;;4.70;2.17;;;20.70;63.00;;;;;;1081541;54;20113;-71
2021/08/16 06:35:07;;;;;;;4.68;2.08;;;20.70;63.00;;;;;;1081773;54;20057;-71
2021/08/16 06:36:28;;;;;;;5.30;1.73;;;20.70;63.10;;;;;;1081962;54;20038;-71
2021/08/16 06:37:49;;;;;;;4.80;2.10;;;20.70;63.10;;;;;;1081576;47;20133;-71
2021/08/16 06:39:18;;;;;;;5.07;2.15;;;20.70;63.10;;;;;;1081441;54;20047;-71
2021/08/16 06:40:39;;;;;;;5.07;2.30;;;20.70;63.20;;;;;;1081333;54;20067;-71
2021/08/16 06:42:00;;;;;;;5.30;2.10;;;20.70;63.20;;;;;;1081541;54;20035;-71
2021/08/16 06:43:22;;;;;;;5.10;2.17;;;20.80;63.30;;;;;;1081973;54;20276;-71
2021/08/16 06:44:43;;;;;;;5.88;2.47;;;20.80;63.20;;;;;;1082356;39;20746;-71
2021/08/16 06:46:04;;;;;;;6.90;2.70;;;20.80;63.30;;;;;;1081503;54;20091;-70
2021/08/16 06:47:25;;;;;;;5.03;2.00;;;20.80;63.20;;;;;;1081403;54;20768;-69
2021/08/16 06:48:46;;;;;;;5.78;2.35;;;20.90;63.20;;;;;;1081908;54;20041;-71
2021/08/16 06:50:07;;;;;;;5.88;2.50;;;20.90;63.20;;;;;;1082036;54;20038;-71
2021/08/16 06:51:28;;;;;;;4.82;1.75;;;20.90;63.00;;;;;;1081581;54;20038;-70
2021/08/16 06:52:49;;;;;;;5.28;1.88;;;20.90;62.90;;;;;;1081487;54;20034;-71
2021/08/16 06:54:10;;;;;;;7.00;2.33;;;20.90;62.80;;;;;;1081689;54;20034;-71
2021/08/16 06:55:31;;;;;;;3.70;1.63;;;20.90;62.90;;;;;;1082115;39;20691;-72
2021/08/16 06:56:51;;;;;;;5.60;2.00;;;20.90;63.00;;;;;;1081746;54;20576;-72
2021/08/16 06:58:12;;;;;;;2.85;1.92;;;21.00;63.10;;;;;;1081712;54;20134;-71
2021/08/16 06:59:34;;;;;;;7.57;1.88;;;21.00;63.10;;;;;;1081635;54;20039;-71
2021/08/16 07:00:54;;;;;;;3.78;2.05;;;21.00;63.10;;;;;;1081829;39;20566;-70
2021/08/16 07:02:15;;;;;;;4.97;2.03;;;21.00;63.00;;;;;;1081852;54;20057;-70
2021/08/16 07:03:36;;;;;;;5.72;1.90;;;21.00;63.00;;;;;;1081526;54;20090;-70
2021/08/16 07:04:57;;;;;;;6.78;2.33;;;21.00;62.90;;;;;;1082417;54;20035;-70
2021/08/16 07:06:18;;;;;;;6.70;2.00;;;21.10;63.10;;;;;;1082235;54;20065;-74